x

8452951 - Potter Cove, Prudence Island, Ri (ptcr1) Weather Station

6:30 - Fri 6th May 2016 All times are EDT. -4 hours from GMT.

  • Wind
    7mph, 9mph gusts
  • Aire Temp 50°f
  • Sea Pressure 1012mb
  • 8452951 - Potter Cove, Prudence Island, Ri
  • 8452951 - Potter Cove, Prudence Island, Ri

More Historic Weather Station data

Upgrade to MSW Pro to gain access to the past 30 days of data for over 8000 Wavebouys and Weather Stations around the globe.

Join Pro

Comparision Forecast

View Surf forecast
   
vie 05/06 6:30 7 9 mph 1012mb 50f
6:24 5 7 mph 1012mb 50f
6:18  -  mph 1011.9mb 50f
6:12  -  mph 1011.8mb 50f
6:06  -  mph 1011.7mb 50f
6:00  -  mph 1011.6mb 51f
5:54  -  mph 1011.6mb 51f
5:48 5 6 mph 1011.6mb -
5:42 5 6 mph 1011.4mb -
5:36 6 7 mph 1011.3mb -
5:30 6 7 mph 1011.3mb 51f
5:24 7 9 mph 1011.1mb 51f
5:18 8 10 mph 1011mb 51f
5:12 9 11 mph 1010.9mb 51f
5:06 8 11 mph 1010.9mb 51f
5:00 8 11 mph 1010.9mb 51f
4:54 10 11 mph 1010.7mb 52f
4:48 11 14 mph 1010.7mb 52f
4:42 9 14 mph 1010.7mb 53f
4:36 9 11 mph 1010.7mb 53f
4:30 8 11 mph 1010.6mb 53f
4:24 9 13 mph 1010.5mb 53f
4:18 8 11 mph 1010.8mb 53f
4:12 9 13 mph 1010.6mb 54f
4:06 10 13 mph 1010.4mb 53f
4:00 10 14 mph 1010.4mb 53f
3:54 10 14 mph 1010.4mb 53f
3:48 11 14 mph 1010.4mb 53f
3:42 13 16 mph 1010.4mb 53f
3:36 13 17 mph 1010.5mb 53f
3:30 11 15 mph 1010.6mb 53f
3:24 15 21 mph 1010.6mb 53f
3:18 14 18 mph 1010.4mb 54f
3:12 10 14 mph 1010.4mb 55f
3:06 10 14 mph 1010.4mb 55f
3:00 13 17 mph 1010.3mb 55f
2:54 13 16 mph 1010.3mb 54f
2:48 13 18 mph 1010.4mb 54f
2:42 14 18 mph 1010.4mb 54f
2:36 11 16 mph 1010.5mb 54f
2:30 14 21 mph 1010.5mb 55f
2:24 14 20 mph 1010.5mb 55f
2:18 13 18 mph 1010.4mb 54f
2:12 14 18 mph 1010.4mb 54f
2:06 14 18 mph 1010.5mb 55f
2:00 14 20 mph 1010.5mb 55f
1:54 13 17 mph 1010.5mb 55f
1:48 14 17 mph 1010.6mb 55f
1:42 13 17 mph 1010.4mb 55f
1:36 13 17 mph 1010.5mb 54f
1:30 10 14 mph 1010.6mb 55f
1:24 11 17 mph 1010.5mb 55f
1:18 13 17 mph 1010.3mb 56f
1:12 13 16 mph 1010.4mb 56f
1:06 13 16 mph 1010.4mb 56f
1:00 11 16 mph 1010.4mb 56f
12:54 15 18 mph 1010.3mb 56f
12:48 15 20 mph 1010.2mb 56f
12:42 14 20 mph 1010.2mb 56f
12:36 15 18 mph 1010.2mb 56f
12:30 14 20 mph 1010.1mb 54f
12:24 13 17 mph 1010.1mb 56f
12:18 15 21 mph 1010mb 55f
12:12 16 22 mph 1010mb 55f
12:06 15 21 mph 1009.8mb 55f
12:00 15 21 mph 1009.8mb 55f
11:54 15 21 mph 1009.8mb 54f
11:48 14 20 mph 1009.6mb 54f
11:42 14 20 mph 1009.9mb 54f
11:36 15 20 mph 1010mb 53f
11:30 14 18 mph 1010mb 53f
11:24 16 21 mph 1009.8mb 53f
11:18 14 18 mph 1010mb 54f
11:12 14 18 mph 1010mb 54f
11:06 14 17 mph 1010mb 53f
11:00 13 17 mph 1010mb 53f
10:54 13 17 mph 1009.9mb 52f
10:48 13 17 mph 1009.8mb 52f
10:42 10 14 mph 1009.8mb 52f
10:36 11 16 mph 1009.7mb 51f
10:30 15 20 mph 1009.5mb 52f
10:24 14 18 mph 1009.8mb 51f
10:18 13 16 mph 1009.5mb 51f
10:12 16 21 mph 1009.3mb 50f
10:06 17 21 mph 1009.1mb 50f
10:00 18 23 mph 1009.1mb 50f
9:54 16 20 mph 1009.1mb 50f
9:48 15 20 mph - -
9:42 16 22 mph - -
9:36 16 20 mph - -
9:30 14 18 mph 1009mb 50f
9:24 15 18 mph 1009mb 49f
9:18 15 21 mph 1009mb 49f
9:12 14 21 mph 1008.9mb 49f
9:06 16 20 mph 1009mb 49f
9:00 13 16 mph 1009.2mb 49f
8:54 11 15 mph 1009.2mb 49f
8:48 9 16 mph 1009.3mb 49f
8:42 9 15 mph 1009.3mb 49f
8:36 8 11 mph 1009.3mb 49f
8:30 14 21 mph 1009.1mb 49f
8:24 14 17 mph 1008.9mb 49f
8:18 14 21 mph 1008.7mb 49f
8:12 15 21 mph 1008.4mb 49f
8:06 16 23 mph 1008.3mb 49f
8:00 17 23 mph 1008mb 49f
7:54 16 21 mph 1007.9mb 49f
7:48 16 21 mph 1007.9mb 48f
7:42 16 22 mph 1008mb 48f
7:36 15 20 mph 1007.9mb 48f
7:30 14 17 mph 1008mb 48f
7:24 13 16 mph 1008.1mb 48f
7:18 10 14 mph 1008.1mb 48f
7:12 10 14 mph 1008.1mb 48f
7:06 9 11 mph 1008mb 48f
7:00 9 11 mph 1008mb 47f
6:54 9 14 mph 1007.8mb 47f
6:48 10 15 mph 1007.7mb 47f
6:42 10 14 mph 1007.6mb 47f
6:36 10 14 mph 1007.6mb 47f
6:30 10 15 mph 1007.3mb 47f
6:24 11 14 mph 1007.3mb 47f
6:18 14 16 mph 1007mb 47f
6:12 13 17 mph 1006.9mb 47f
6:06 14 18 mph 1006.6mb 47f
6:00 15 22 mph 1006.6mb 47f
5:54 13 18 mph 1006.7mb 47f
5:48 11 15 mph 1006.8mb 47f
5:42 11 15 mph 1006.9mb 47f
5:36 11 15 mph 1006.9mb 47f
5:30 14 18 mph 1006.9mb 47f
5:24 14 16 mph 1006.4mb 47f
5:18 14 18 mph 1006.4mb 47f
5:12 14 20 mph 1006.1mb 47f
5:06 15 18 mph 1006.1mb 47f
5:00 13 17 mph 1006mb 47f
4:54 13 18 mph 1006.2mb 47f
4:48 10 15 mph 1006.2mb 47f
4:42 11 17 mph 1006mb 47f
4:36 11 16 mph 1006mb 47f
4:30 14 18 mph 1005.5mb 47f
4:24 13 16 mph 1005.5mb 47f
4:18 11 16 mph 1005.7mb 47f
4:12 10 14 mph 1005.9mb 47f
4:06 10 15 mph 1005.8mb 47f
4:00 13 20 mph 1005.5mb 47f
3:54 14 18 mph 1005.1mb 47f
3:48 15 21 mph 1004.9mb 47f
3:42 14 17 mph 1004.9mb 47f
3:36 14 20 mph 1005mb 47f
3:30 17 21 mph 1004.7mb 47f
3:24 15 22 mph 1004.6mb 47f
3:18 14 20 mph 1004.8mb 47f
3:12 13 17 mph 1004.8mb 47f
3:06 11 16 mph 1005mb 47f
3:00 14 18 mph 1004.9mb 47f
2:54 16 21 mph 1004.9mb 47f
2:48 15 18 mph 1005mb 47f
2:42 13 20 mph 1005.1mb 47f
2:36 13 17 mph 1005.1mb 47f
2:30 13 20 mph 1004.9mb 47f
2:24 15 20 mph 1004.7mb 47f
2:18 16 22 mph 1004.6mb 47f
2:12 16 22 mph 1004.4mb 47f
2:06 18 25 mph 1004.3mb 47f
2:00 18 23 mph 1004.3mb 47f
1:54 18 25 mph 1004.2mb 47f
1:48  -  mph 1004.3mb 47f
1:42  -  mph 1004.3mb 47f
1:36  -  mph 1004.5mb 47f
1:30 17 22 mph 1004.6mb 47f
1:24 17 23 mph 1004.6mb 47f
1:18 16 24 mph 1004.5mb 47f
1:12 18 25 mph 1004.5mb 47f
1:06 18 25 mph 1004.4mb 47f
1:00 21 25 mph 1004.4mb 47f
12:54 21 30 mph 1004.3mb 47f
12:48 21 28 mph 1004.3mb 47f
12:42 20 26 mph 1004.3mb 47f
12:36 21 28 mph 1004.4mb 47f
12:30 18 23 mph 1004.6mb 47f
12:24 17 22 mph 1004.9mb 46f
12:18 17 23 mph 1004.9mb 47f
12:12 18 25 mph 1004.8mb 47f
12:06 18 24 mph 1004.7mb 46f
12:00 18 24 mph 1004.7mb 46f
jue 05/05 11:54 16 23 mph 1004.7mb 46f
11:48  -  mph 1004.6mb 46f
11:42  -  mph 1004.6mb 46f
11:36  -  mph 1004.6mb 46f
11:30 20 24 mph 1004.7mb 46f
11:24 18 24 mph 1004.9mb 46f
11:18 16 22 mph 1005mb 46f
11:12 16 22 mph 1005mb 46f
11:06 17 23 mph 1005.1mb 46f
11:00  -  mph 1005.1mb 46f
10:54  -  mph 1005.1mb 46f
10:48  -  mph 1004.9mb 46f
10:42  -  mph 1005mb 46f
10:36  -  mph 1005mb 46f
10:30 22 29 mph 1004.8mb -
10:24 22 29 mph 1004.9mb -
10:18  -  mph 1004.9mb -
10:12  -  mph 1005.4mb -
10:06  -  mph 1005.6mb -
10:00  -  mph 1005.6mb -
9:54  -  mph 1005.6mb -
9:48  -  mph 1005.5mb 47f
9:42  -  mph 1005.5mb 47f
9:36  -  mph 1005.6mb 47f
9:30  -  mph 1005.4mb -
9:24  -  mph 1005.3mb -
9:18  -  mph 1005.3mb -
9:12  -  mph 1005.3mb 47f
9:06  -  mph 1005.4mb 47f
9:00  -  mph 1004.7mb 47f
8:54  -  mph 1004.7mb 47f
8:48  -  mph 1004.5mb 47f
8:42  -  mph 1004.7mb 46f
8:36  -  mph 1004.5mb 46f
8:30 25 36 mph 1004.2mb -
8:24 22 30 mph 1004.3mb -
8:18  -  mph 1004.1mb 46f
8:12  -  mph 1003.9mb 46f
8:06  -  mph 1004mb 46f
8:00 24 31 mph 1004.2mb -
7:54 23 30 mph 1004.2mb -
7:48 23 30 mph 1004.2mb -
7:42 23 28 mph 1004.1mb -
7:36 24 33 mph 1004mb -
7:30 24 31 mph 1004mb -
7:24 28 34 mph 1003.9mb -
7:18  -  mph 1004.1mb 46f
7:12  -  mph 1004.2mb 46f
7:06  -  mph 1004.2mb 46f
7:00  -  mph 1004.4mb -
6:54  -  mph 1004.6mb -
6:48  -  mph 1004.6mb -
6:42  -  mph 1004.8mb -
6:36  -  mph 1004.8mb -
6:30 25 30 mph 1004.9mb 45f
6:24 21 26 mph 1005mb 45f
6:18  -  mph 1005mb 45f
6:12  -  mph 1005mb 45f
6:06  -  mph 1004.8mb 45f
6:00 24 32 mph 1004.8mb -
5:54 21 30 mph 1004.9mb -
5:48  -  mph 1005mb 45f
5:42  -  mph 1004.9mb 45f
5:36  -  mph 1004.9mb 45f
5:30 23 30 mph 1004.9mb 45f
5:24 25 33 mph 1005mb 45f
5:18 24 30 mph 1004.9mb 45f
5:12 23 28 mph 1004.9mb 45f
5:06 22 29 mph 1004.9mb 45f
5:00 22 30 mph 1005.2mb 46f
4:54 23 32 mph 1005.2mb 46f
4:48 26 36 mph 1005mb 46f
4:42 24 31 mph 1005.1mb 46f
4:36 22 32 mph 1005.4mb 46f
4:30 23 28 mph 1005.4mb 46f
4:24 24 31 mph 1005.4mb 46f
4:18 23 29 mph 1005.4mb 46f
4:12 22 30 mph 1005.5mb 46f
4:06 25 36 mph 1005.4mb 46f
4:00 22 29 mph 1005.3mb 46f
3:54 23 30 mph 1005.3mb 46f
3:48 24 31 mph 1005.3mb 46f
3:42 25 30 mph 1005.3mb 46f
3:36 23 32 mph 1005.4mb 46f
3:30 24 30 mph 1005.5mb 46f
3:24 22 28 mph 1005.5mb 46f
3:18 25 31 mph 1005.3mb 46f
3:12 25 33 mph 1005.3mb 46f
3:06 24 32 mph 1005.5mb 46f
3:00 24 30 mph 1005.5mb 46f
2:54 24 32 mph 1005.5mb 46f
2:48 23 31 mph 1005.6mb 46f
2:42 22 28 mph 1005.9mb 46f
2:36 22 29 mph 1005.8mb 46f
2:30 20 25 mph 1005.9mb 46f
2:24 24 32 mph 1005.9mb 46f
2:18 24 32 mph 1005.8mb 46f
2:12 22 32 mph 1005.9mb 46f
2:06 23 30 mph 1005.8mb 46f
2:00  -  mph 1005.8mb 46f
1:54  -  mph 1005.8mb 46f
1:48 25 31 mph 1006mb 46f
1:42 26 33 mph 1006mb 46f
1:36 20 30 mph 1006.2mb 47f
1:30 21 28 mph 1006.1mb 47f
1:24 22 26 mph 1006.2mb 47f
1:18 28 34 mph 1006.1mb 47f
1:12 23 31 mph 1006.1mb 47f
1:06 23 33 mph 1006.2mb 47f
1:00 21 29 mph 1006.2mb 47f
12:54 26 34 mph 1006.3mb 47f
12:48 24 37 mph 1006.3mb 47f
12:42 26 34 mph 1006.2mb 47f
12:36 25 32 mph 1006.3mb 47f
12:30 20 30 mph 1006.4mb 47f
12:24 24 30 mph 1006.4mb 47f
12:18 25 32 mph 1006.4mb 47f
12:12 25 32 mph 1006.3mb 47f
12:06 20 25 mph 1006.4mb 47f
12:00 21 25 mph 1006.6mb 47f
11:54 22 28 mph 1006.7mb 47f
11:48 23 32 mph 1006.7mb 47f
11:42 21 26 mph 1006.7mb 47f
11:36 23 30 mph 1006.6mb 47f
11:30 23 31 mph 1006.6mb 47f
11:24 24 32 mph 1006.6mb 47f
11:18 26 34 mph 1006.7mb 47f
11:12 24 33 mph 1006.9mb 47f
11:06 22 28 mph 1006.9mb 47f
11:00 22 28 mph 1006.9mb 47f
10:54 23 29 mph 1006.8mb 47f
10:48 22 30 mph 1006.8mb 47f
10:42 23 29 mph 1006.8mb 47f
10:36 20 25 mph 1006.8mb 47f
10:30 21 28 mph 1006.9mb 47f
10:24 24 30 mph 1006.7mb 47f
10:18 24 31 mph 1006.8mb 47f
10:12 25 34 mph 1006.7mb 47f
10:06 18 25 mph 1006.8mb 47f
10:00 21 30 mph 1006.8mb 47f
9:54 22 29 mph 1006.6mb 47f
9:48 21 26 mph 1006.6mb -
9:42 25 33 mph 1006.7mb -
9:36 22 29 mph 1006.7mb -
9:30 23 30 mph 1006.8mb 47f
9:24 24 32 mph 1006.8mb 47f
9:18 22 30 mph 1006.8mb 47f
9:12 25 32 mph 1006.6mb 47f
9:06 21 28 mph 1006.6mb 47f
9:00 21 30 mph 1006.5mb 47f
8:54 25 36 mph 1006.4mb 47f
8:48 21 26 mph 1006.4mb 47f
8:42 24 29 mph 1006.4mb 47f
8:36 22 28 mph 1006.5mb 47f
8:30 23 33 mph 1006.4mb 47f
8:24 24 31 mph 1006.4mb 47f
8:18 24 32 mph 1006.6mb 46f
8:12 20 26 mph 1007mb 46f
8:06 20 28 mph 1006.9mb 47f
8:00 20 28 mph 1006.9mb 47f
7:54 21 30 mph 1006.8mb 46f
7:48 22 30 mph 1006.8mb 46f
7:42 22 28 mph 1006.6mb 46f
7:36 21 28 mph 1006.6mb 47f
7:30 22 28 mph 1006.6mb 47f
7:24 22 26 mph 1006.5mb 46f
7:18 21 26 mph 1006.5mb 46f
7:12 23 30 mph 1006.5mb 46f
7:06 20 26 mph 1006mb 46f
7:00 22 29 mph 1005.8mb 46f
6:54 22 30 mph 1005.9mb 46f
6:48 22 28 mph 1005.9mb 46f
6:42 21 26 mph 1005.6mb 46f
6:36 21 29 mph 1005.8mb 46f
6:30 20 24 mph 1005.9mb 46f
6:24 18 23 mph 1005.9mb 46f
6:18 20 24 mph 1005.9mb 46f
6:12 18 24 mph 1005.9mb 46f
6:06 20 24 mph 1005.8mb 46f
6:00 20 26 mph 1005.9mb 46f
5:54 20 25 mph 1006.1mb 46f
5:48 20 25 mph 1006mb 46f
5:42 18 24 mph 1005.7mb 46f
5:36 21 26 mph 1005.9mb 46f
5:30 20 26 mph 1006mb 46f
5:24 17 23 mph 1006.1mb 46f
5:18 18 24 mph 1006.1mb 46f
5:12 20 25 mph 1006.2mb 46f
5:06 16 21 mph 1006.2mb 46f
5:00 18 24 mph 1006.2mb 46f
4:54 18 23 mph 1006.1mb 46f
4:48 18 24 mph 1006mb 46f
4:42 18 25 mph 1006mb 46f
4:36 20 26 mph 1006mb 46f
4:30 17 23 mph 1006mb 46f
4:24 17 22 mph 1006.1mb 46f
4:18 17 21 mph 1005.9mb 45f
4:12 20 25 mph 1005.9mb 46f
4:06 18 24 mph 1005.9mb 46f
4:00 18 24 mph 1006.1mb 45f
3:54 17 23 mph 1006.2mb 46f
3:48 17 23 mph 1006.1mb 46f
3:42 18 23 mph 1006.1mb 46f
3:36 18 23 mph 1006.3mb 46f
3:30 16 21 mph 1006.3mb 46f
3:24 17 23 mph 1006.4mb 46f
3:18 17 23 mph 1006.4mb 46f
3:12 17 23 mph 1006.7mb 46f
3:06 15 22 mph 1006.7mb 46f
3:00 17 23 mph 1006.7mb 46f
2:54 17 23 mph 1006.4mb 46f
2:48 17 24 mph 1006.3mb 46f
2:42 18 28 mph 1006.3mb 46f
2:36 20 24 mph 1006.6mb 46f
2:30 17 23 mph 1006.6mb 46f
2:24 17 23 mph 1006.8mb 46f
2:18 16 22 mph 1006.8mb 46f
2:12 17 22 mph 1007mb 46f
2:06 17 21 mph 1007.1mb 46f
2:00 16 24 mph 1007.2mb 46f
1:54 17 22 mph 1007.1mb 46f
1:48 17 22 mph 1007.1mb 46f
1:42  -  mph 1007.1mb 46f
1:36  -  mph 1007.3mb 46f
1:30 14 17 mph 1007.3mb 46f
1:24 16 21 mph 1007.2mb 46f
1:18 16 22 mph 1007.2mb 46f
1:12 16 21 mph 1007.3mb 46f
1:06 16 23 mph 1007.3mb 46f
1:00 16 22 mph 1007.3mb 46f
12:54 16 21 mph 1007.3mb 46f
12:48 16 21 mph 1007.4mb 46f
12:42 15 20 mph 1007.4mb 46f
12:36 15 21 mph 1007.3mb 46f
12:30 17 22 mph 1007.3mb 46f
12:24 17 22 mph 1007.5mb 46f
12:18 16 21 mph 1007.6mb 46f
12:12 17 23 mph 1007.5mb 46f
12:06 17 22 mph 1007.4mb 46f
12:00 20 26 mph 1007.3mb 46f
mié 05/04 11:54 21 28 mph 1007.2mb 46f
11:48  -  mph 1007.4mb 46f
11:42  -  mph 1007.7mb 46f
11:36  -  mph 1007.7mb 46f
11:30 17 24 mph 1007.7mb 46f
11:24 20 24 mph 1007.7mb 46f
11:18 18 24 mph 1007.5mb 46f
11:12 18 24 mph 1007.3mb 46f
11:06 18 25 mph 1007.5mb 46f
11:00  -  mph 1007.6mb -
10:54  -  mph 1007.5mb -
10:48 17 22 mph 1007.7mb -
10:42 17 22 mph 1007.7mb -
10:36 18 25 mph 1007.6mb -
10:30 18 24 mph 1007.6mb 46f
10:24 18 24 mph 1007.8mb 46f
10:18  -  mph 1007.9mb 46f
10:12  -  mph 1007.9mb 46f
10:06  -  mph 1008.1mb 46f
10:00  -  mph 1008.1mb 46f
9:54  -  mph 1008.3mb 45f
9:48  -  mph 1008.7mb -
9:42  -  mph 1008.8mb -
9:36  -  mph 1008.6mb -
9:30 16 21 mph 1008.8mb -
9:24 16 20 mph 1009.2mb -
9:18  -  mph 1009.4mb 45f
9:12  -  mph 1009.2mb 45f
9:06  -  mph 1009mb 45f
9:00  -  mph 1008.9mb -
8:54  -  mph 1008.7mb -
8:48 16 21 mph 1008.7mb -
8:42 15 20 mph 1008.7mb -
8:36 16 20 mph 1008.7mb -
8:30 16 21 mph 1008.7mb -
8:24 15 20 mph 1008.5mb -
8:18  -  mph 1008.5mb 45f
8:12  -  mph 1008.2mb 45f
8:06  -  mph 1008.2mb 45f
8:00  -  mph 1008.4mb 45f
7:54  -  mph 1008.5mb 45f
7:48  -  mph 1007.5mb 45f
7:42  -  mph 1007.5mb 45f
7:36  -  mph 1008.2mb 45f
7:30  -  mph 1008.4mb 45f
7:24  -  mph 1008.6mb 45f
7:18 17 24 mph 1008.2mb -
7:12 17 23 mph 1008.6mb -
7:06 20 29 mph 1008.2mb -
7:00  -  mph 1008mb -
6:54  -  mph 1008.9mb -
6:48  -  mph 1008.8mb -
6:42  -  mph 1008.6mb -
6:36  -  mph 1008.6mb -
6:30 20 25 mph 1008.6mb 45f
6:24 17 24 mph 1008.4mb 46f
6:18 17 23 mph 1008mb 46f
6:12  -  mph 1007.9mb 45f
6:06  -  mph 1008.4mb 46f
6:00  -  mph 1008.6mb 46f
5:54  -  mph 1008.6mb 46f
5:48  -  mph 1008.5mb 46f
5:42  -  mph 1008.4mb 46f
5:36  -  mph 1008.3mb 46f
5:30 15 18 mph 1008.4mb 46f
5:24 15 21 mph 1008.6mb 46f
5:18 15 18 mph 1008.8mb 46f
5:12 16 21 mph 1008.7mb 46f
5:06 14 20 mph 1008.7mb 46f
5:00 15 21 mph 1008.3mb 47f
4:54 16 21 mph 1008.3mb 47f
4:48 14 18 mph 1008.4mb 47f
4:42 16 22 mph 1008.3mb 47f
4:36 15 21 mph 1008.1mb 47f
4:30 17 22 mph 1008.2mb 47f
4:24 17 22 mph 1008.3mb 47f
4:18 18 23 mph 1008.4mb 47f
4:12 20 24 mph 1008.9mb 48f
4:06 15 20 mph 1009mb 48f
4:00 15 20 mph 1009mb 48f
3:54 18 24 mph 1008.9mb 48f
3:48 15 21 mph 1008.9mb 49f
3:42 17 21 mph 1008.8mb 49f
3:36 17 23 mph 1008.7mb 48f
3:30 17 22 mph 1008.9mb 49f
3:24 18 24 mph 1008.9mb 49f
3:18 15 21 mph 1008.9mb 49f
3:12 16 23 mph 1008.8mb 49f
3:06 16 21 mph 1008.8mb 49f
3:00 18 24 mph 1008.7mb 49f
2:54 18 23 mph 1008.7mb 50f
2:48 16 21 mph 1009.2mb 50f
2:42 16 22 mph 1009.3mb 50f
2:36 16 22 mph 1009.3mb 50f
2:30 16 22 mph 1009.4mb 50f
2:24 20 26 mph 1009.4mb 50f
2:18 20 25 mph 1009.3mb 50f
2:12 18 23 mph 1009.3mb 50f
2:06 16 24 mph 1009.3mb 50f
2:00 17 25 mph 1009.4mb 51f
1:54 18 24 mph 1009.5mb 51f
1:48 16 23 mph 1009.5mb 52f
1:42 17 24 mph 1009.7mb 51f
1:36 16 21 mph 1010mb 51f
1:30 17 25 mph 1010.2mb 51f
1:24 15 21 mph 1010.4mb 51f
1:18 15 21 mph 1010.3mb 52f
1:12 16 22 mph 1010.1mb 52f
1:06 17 23 mph 1010.3mb 52f
1:00 15 21 mph 1010.3mb 52f
12:54 15 21 mph 1010.4mb 52f
12:48 15 21 mph 1010.7mb 51f
12:42 14 18 mph 1010.7mb 51f
12:36 15 20 mph 1010.8mb 52f
12:30 13 16 mph 1010.9mb 52f
12:24 13 18 mph 1010.7mb 52f
12:18 13 17 mph 1010.8mb 53f
12:12 13 17 mph 1010.9mb 52f
12:06 14 17 mph 1011mb 52f
12:00 13 17 mph 1011.2mb 52f
11:54 11 15 mph 1011.3mb 53f
11:48 13 17 mph 1011.1mb 52f
11:42 14 18 mph 1011mb 52f
11:36 14 18 mph 1011.2mb 52f
11:30 11 16 mph 1011.2mb 52f
11:24 11 17 mph 1011.5mb 52f
11:18 11 17 mph 1011.7mb 51f
11:12 11 15 mph 1011.8mb 52f
11:06 11 16 mph 1011.6mb 52f
11:00 11 17 mph 1011.5mb 52f
10:54 14 17 mph 1011.3mb 52f
10:48 11 17 mph 1011.4mb -
10:42 13 17 mph 1011.4mb -
10:36 10 16 mph 1011.5mb -
10:30 10 15 mph 1011.5mb 51f
10:24 13 16 mph 1011.5mb 51f
10:18 10 16 mph 1011.7mb 50f
10:12 11 15 mph 1011.5mb 50f
10:06 13 16 mph 1011.4mb 50f
10:00 10 14 mph 1011.3mb 51f
9:54 11 17 mph 1011.3mb 51f
9:48 13 17 mph - -
9:42 10 15 mph - -
9:36 14 18 mph - -
9:30 14 21 mph 1010.8mb 50f
9:24 13 17 mph 1010.7mb 50f
9:18 13 16 mph 1010.7mb 50f
9:12 14 16 mph 1010.7mb 50f
9:06 14 18 mph 1010.7mb 50f
9:00 13 16 mph 1010.9mb 49f
8:54 14 18 mph 1010.8mb 49f
8:48 14 18 mph 1010.8mb 49f
8:42 11 16 mph 1011mb 49f
8:36 11 15 mph 1011mb 49f
8:30 8 13 mph 1011.4mb 49f
8:24 10 14 mph 1011.4mb 48f
8:18 9 13 mph 1011.5mb 48f
8:12 10 15 mph 1011.4mb 48f
8:06 10 14 mph 1011.6mb 48f
8:00 10 15 mph 1011.6mb 48f
7:54 9 14 mph 1011.6mb 48f
7:48 11 14 mph 1011.6mb 48f
7:42 10 14 mph 1011.4mb 48f
7:36 11 15 mph 1011.2mb 48f
7:30 10 14 mph 1011.5mb 48f
7:24 9 11 mph 1011.5mb 48f
7:18 8 11 mph 1011.5mb 48f
7:12 10 13 mph 1011.5mb 48f
7:06 9 11 mph 1011.4mb 48f
7:00 9 13 mph 1011.5mb 48f
6:54 10 13 mph 1011.6mb 47f
6:48 7 10 mph 1011.7mb 47f
6:42 7 11 mph 1011.7mb 47f
6:36 8 11 mph 1011.6mb 47f
6:30 9 13 mph 1011.4mb 47f
6:24 10 13 mph 1011.4mb 47f
6:18 9 13 mph 1011.2mb 47f
6:12 8 13 mph 1011.1mb 47f
6:06 9 11 mph 1011mb 47f
6:00 10 14 mph 1011mb 47f
5:54 9 14 mph 1011mb 47f
5:48 10 14 mph 1010.8mb 47f
5:42 10 13 mph 1010.8mb 47f
5:36 9 14 mph 1010.8mb 47f
5:30 10 14 mph 1010.6mb 47f
5:24 10 14 mph 1010.5mb 47f
5:18 11 16 mph 1010.5mb 47f
5:12 9 14 mph 1010.5mb 47f
5:06 10 14 mph 1010.5mb 47f
5:00 10 13 mph 1010.5mb 47f
4:54 9 13 mph 1010.7mb 47f
4:48 8 11 mph 1011mb 47f
4:42 9 11 mph 1011.1mb 47f
4:36 7 9 mph 1011.1mb 47f
4:30 7 8 mph 1011.1mb 47f
4:24 7 9 mph 1011mb 47f
4:18 9 13 mph 1010.8mb 47f
4:12 7 9 mph 1010.8mb 47f
4:06 7 9 mph 1010.8mb 47f
4:00 8 10 mph 1010.6mb 47f
3:54 7 8 mph 1010.6mb 47f
3:48 8 10 mph 1010.6mb 47f
3:42 7 8 mph 1010.8mb 47f
3:36 7 8 mph 1010.9mb 47f
3:30 7 9 mph 1010.8mb 47f
3:24 7 10 mph 1010.7mb 47f
3:18 7 9 mph 1010.7mb 47f
3:12 8 9 mph 1010.6mb 47f
3:06 7 9 mph 1010.6mb 47f
3:00 7 9 mph 1010.8mb 47f
2:54 5 7 mph 1010.8mb 47f
2:48 6 8 mph 1010.8mb 47f
2:42 6 8 mph 1010.7mb 47f
2:36 7 9 mph 1010.6mb 47f
2:30 6 8 mph 1010.6mb 47f
2:24 6 9 mph 1010.6mb 47f
2:18 6 8 mph 1010.8mb 47f
2:12 6 8 mph 1010.8mb 47f
2:06 6 8 mph 1010.9mb 47f
2:00 7 9 mph 1010.8mb 47f
1:54 7 9 mph 1010.8mb 47f
1:48  -  mph 1010.8mb 47f
1:42  -  mph 1010.7mb 47f
1:36  -  mph 1010.7mb 47f
1:30 7 9 mph 1010.9mb 47f
1:24 7 9 mph 1010.9mb 47f
1:18 8 9 mph 1011mb 47f
1:12 7 9 mph 1011mb 47f
1:06 7 9 mph 1011mb 47f
1:00 8 10 mph 1011.1mb 47f
12:54 7 9 mph 1011.1mb 47f
12:48 8 10 mph 1011.1mb 47f
12:42 7 9 mph 1011.3mb 47f
12:36 7 9 mph 1011.4mb 48f
12:30 7 9 mph 1011.5mb 47f
12:24 6 7 mph 1011.6mb 48f
12:18 6 7 mph 1011.6mb 48f
12:12 6 8 mph 1011.5mb 48f
12:06 6 8 mph 1011.5mb 48f
12:00 7 9 mph 1011.5mb 48f
mar 05/03 11:54 5 7 mph 1011.5mb 48f
11:48  -  mph 1011.6mb 48f
11:42  -  mph 1011.7mb 48f
11:36  -  mph 1011.7mb 48f
11:30 6 8 mph 1011.7mb 48f
11:24 6 7 mph 1011.8mb 48f
11:18 5 7 mph 1011.8mb 48f
11:12 6 7 mph 1011.7mb 48f
11:06 6 7 mph 1011.8mb 48f
11:00 7 8 mph 1011.6mb 48f
10:54 8 9 mph 1011.7mb 48f
10:48 7 9 mph 1011.7mb 48f
10:42  -  mph 1011.8mb 48f
10:36  -  mph 1011.8mb 48f
10:30  -  mph 1011.8mb 48f
10:24  -  mph 1012mb 48f
10:18  -  mph 1012.1mb 48f
10:12  -  mph 1012.1mb 48f
10:06  -  mph 1011.8mb 48f
10:00  -  mph 1012mb 48f
9:54  -  mph 1012.1mb 48f
9:48  -  mph 1012mb -
9:42  -  mph 1012.1mb -
9:36  -  mph 1012.1mb -
9:30 7 9 mph 1012.2mb 48f
9:24 7 10 mph 1012.2mb 48f
9:18  -  mph 1012mb 48f
9:12  -  mph 1011.9mb 48f
9:06  -  mph 1011.9mb 48f
9:00  -  mph 1011.9mb 48f
8:54  -  mph 1012mb 49f
8:48  -  mph 1011.9mb -
8:42  -  mph 1011.8mb -
8:36  -  mph 1011.5mb -
8:30 7 9 mph 1011.4mb -
8:24 7 11 mph 1011.4mb -
8:18  -  mph 1011.4mb 49f
8:12  -  mph 1011.4mb 49f
8:06  -  mph 1011.4mb 49f
8:00  -  mph 1011.4mb -
7:54  -  mph 1011.3mb -
7:48  -  mph 1011.1mb -
7:42  -  mph 1011.1mb -
7:36  -  mph 1011mb -
7:30  -  mph 1011mb -
7:24  -  mph 1011mb -
7:18  -  mph 1010.9mb 49f
7:12  -  mph 1010.8mb 49f
7:06  -  mph 1011mb 49f
7:00  -  mph 1011mb 49f
6:54  -  mph 1011mb 50f
6:48  -  mph 1010.9mb 50f
6:42  -  mph 1010.9mb 50f
6:36  -  mph 1010.9mb 50f
6:30 8 10 mph 1010.8mb 50f
6:24 10 13 mph 1010.7mb 50f
6:18  -  mph 1010.6mb 50f
6:12  -  mph 1010.6mb 50f
6:06  -  mph 1010.8mb 50f
6:00  -  mph 1010.7mb 50f
5:54  -  mph 1010.7mb 50f
5:48  -  mph 1010.6mb 50f
5:42  -  mph 1010.5mb 50f
5:36  -  mph 1010.5mb 51f
5:30 10 15 mph 1010.4mb 50f
5:24 10 14 mph 1010.4mb 50f
5:18 11 14 mph 1010.5mb 50f
5:12 9 13 mph 1010.6mb 50f
5:06 10 13 mph 1010.6mb 50f
5:00 9 13 mph 1010.6mb 50f
4:54 8 13 mph 1010.5mb 50f
4:48 10 15 mph 1010.5mb 50f
4:42 10 14 mph 1010.6mb 50f
4:36 9 13 mph 1010.5mb 50f
4:30 9 13 mph 1010.5mb -
4:24 11 15 mph 1010.5mb -
4:18 10 14 mph 1010.6mb 51f
4:12 10 13 mph 1010.6mb 50f
4:06 10 13 mph 1010.6mb 51f
4:00 8 10 mph 1010.7mb 51f
3:54 8 10 mph 1010.8mb 51f
3:48 8 13 mph 1010.7mb 51f
3:42 8 13 mph 1010.7mb 51f
3:36 9 13 mph 1010.7mb 51f
3:30 8 10 mph 1010.9mb 51f
3:24 8 11 mph 1011.1mb 51f
3:18 7 10 mph 1011.1mb 51f
3:12 8 11 mph 1011mb 51f
3:06 8 9 mph 1011.1mb 51f
3:00 7 10 mph 1011.2mb 52f
2:54 7 10 mph 1011.2mb 51f
2:48 8 10 mph 1011.3mb 51f
2:42 8 10 mph 1011.4mb 52f
2:36 8 10 mph 1011.2mb 51f
2:30 7 10 mph 1011.4mb 51f
2:24 7 9 mph 1011.2mb 51f
2:18 7 9 mph 1011.3mb 51f
2:12 8 11 mph 1011.3mb 51f
2:06 7 10 mph 1011.4mb 51f
2:00 7 10 mph 1011.3mb 51f
1:54 7 9 mph 1011.4mb 51f
1:48 7 9 mph 1011.4mb 51f
1:42 7 10 mph 1011.5mb 51f
1:36 6 8 mph 1011.8mb 50f
1:30 6 7 mph 1011.8mb 50f
1:24 7 9 mph 1011.6mb 50f
1:18 7 9 mph 1011.7mb 50f
1:12 7 9 mph 1011.7mb 50f
1:06 7 9 mph 1011.6mb 50f
1:00 7 10 mph 1011.6mb 50f
12:54 7 10 mph 1011.5mb 50f
12:48 7 9 mph 1011.6mb 50f
12:42 6 8 mph 1011.6mb 51f
12:36 7 9 mph 1011.6mb 50f
12:30 8 11 mph 1011.7mb 50f
12:24 8 11 mph 1011.7mb 50f
12:18 9 11 mph 1011.8mb 50f
12:12 9 11 mph 1012mb 49f
12:06 9 11 mph 1012mb 49f
12:00 8 11 mph 1012.2mb 49f
11:54 7 9 mph 1012.3mb 50f
11:48 9 11 mph 1012.3mb 49f
11:42 9 11 mph 1012.4mb 49f
11:36 7 9 mph 1012.6mb 49f
11:30 8 9 mph 1012.6mb 49f
11:24 7 9 mph 1012.6mb 49f
11:18 7 10 mph 1012.8mb 49f
11:12 6 8 mph 1013mb 49f
11:06 6 8 mph 1013.2mb 49f
11:00 5 7 mph 1013.3mb 49f
10:54 6 7 mph 1013.4mb 49f
10:48 6 8 mph 1013.4mb -
10:42 7 9 mph 1013.4mb -
10:36 6 7 mph 1013.4mb -
10:30 7 8 mph 1013.4mb 49f
10:24 6 8 mph 1013.4mb 49f
10:18 8 9 mph 1013.3mb 48f
10:12 8 10 mph 1013.2mb 48f
10:06 6 8 mph 1013.3mb 49f
10:00 6 7 mph 1013.2mb 49f
9:54 6 7 mph 1013.3mb 48f
9:48 6 7 mph 1013.3mb 48f
9:42 6 7 mph 1013.3mb 48f
9:36 5 7 mph 1013.3mb 48f
9:30 5 6 mph 1013.4mb 48f
9:24 7 8 mph 1013.3mb 48f
9:18 6 8 mph 1013.2mb 48f
9:12 7 8 mph 1013.3mb 48f
9:06 7 8 mph 1013.3mb 48f
9:00 6 8 mph 1013.4mb 48f
8:54 5 7 mph 1013.4mb 48f
8:48 6 8 mph 1013.3mb 48f
8:42 6 8 mph 1013.2mb 48f
8:36 7 8 mph 1013.2mb 48f
8:30 7 9 mph 1013.1mb 48f
8:24 7 9 mph 1013.2mb 48f
8:18 7 9 mph 1013.2mb 48f
8:12 7 9 mph 1013.1mb 48f
8:06 7 9 mph 1013mb 49f
8:00 7 10 mph 1013mb 48f
7:54 7 10 mph 1013.1mb 48f
7:48 7 10 mph 1013.2mb 48f
7:42 7 10 mph 1013.3mb 48f
7:36 7 10 mph 1013.3mb 48f
7:30 7 10 mph 1013.2mb 49f
7:24 8 10 mph 1013.2mb 48f
7:18 7 10 mph 1013.3mb 49f
7:12 8 10 mph 1013.3mb 49f
7:06 7 10 mph 1013.2mb 49f
7:00 8 10 mph 1013.2mb 48f
6:54 7 9 mph 1013.1mb 48f
6:48 8 10 mph 1013.1mb 48f
6:42 7 10 mph 1013.2mb 48f
6:36 5 7 mph 1013.3mb 48f
6:30 3 7 mph 1013.4mb 48f
6:24 3 7 mph 1013.5mb 48f
6:18 2 5 mph 1013.6mb 48f
6:12 2 5 mph 1013.8mb 48f
6:06 2 5 mph 1013.9mb 48f
6:00 1 3 mph 1014mb 48f
5:54 2 3 mph 1013.9mb 48f
5:48 2 3 mph 1014.1mb 48f
5:42 2 3 mph 1013.9mb 48f
5:36 3 6 mph 1013.7mb 48f
5:30 5 8 mph 1013.5mb 49f
5:24 3 8 mph 1013.1mb 49f
5:18 6 9 mph 1013.2mb 49f
5:12 6 9 mph 1013.2mb 49f
5:06 3 6 mph 1013.4mb 49f
5:00 3 7 mph 1013.4mb 49f
4:54 6 7 mph 1013.4mb 49f
4:48 5 7 mph 1013.6mb 49f
4:42 6 7 mph 1013.6mb 49f
4:36 3 6 mph 1013.6mb 49f
4:30 2 5 mph 1014.1mb 49f
4:24 2 3 mph 1014.1mb 49f
4:18 2 3 mph 1014.2mb 49f
4:12 1 2 mph 1014.4mb 49f
4:06  -  2 mph 1014.7mb 49f
4:00 2
mph
1014.7mb 49f
3:54  -  2 mph 1014.6mb 49f
3:48  -  1 mph 1014.6mb 49f
3:42 2 3 mph 1013.8mb 49f
3:36  -  1 mph 1013.8mb 49f
3:30 2 5 mph 1013.8mb 49f
3:24 6 7 mph 1013mb 50f
3:18 7 9 mph 1012.7mb 50f
3:12 6 8 mph 1012.7mb 50f
3:06 3 6 mph 1013.3mb 50f
3:00 5 7 mph 1012.9mb 50f
2:54 6 8 mph 1013.2mb 50f
2:48 6 8 mph 1013.2mb 50f
2:42 2 5 mph 1013.9mb 50f
2:36 5 8 mph 1013.5mb 50f
2:30 8 10 mph 1013mb 51f
2:24 8 11 mph 1012.9mb 51f
2:18 8 10 mph 1013.1mb 51f
2:12 7 10 mph 1013.1mb 51f
2:06 7 10 mph 1013.4mb 51f
2:00 8 10 mph 1013.3mb 51f
1:54 8 10 mph 1013.6mb 51f
1:48 8 10 mph 1013.6mb 51f
1:42 7 10 mph 1013.6mb 51f
1:36 5 7 mph 1013.9mb 50f
1:30 5 7 mph 1014.1mb 50f
1:24 6 7 mph 1014mb 51f
1:18 7 9 mph 1014mb 51f
1:12 7 9 mph 1014.2mb 51f
1:06 8 11 mph 1014.2mb 51f
1:00 8 11 mph 1013.9mb 51f
12:54 9 11 mph 1013.9mb 51f
12:48 8 11 mph 1014mb 51f
12:42 7 10 mph 1014.3mb 51f
12:36 7 9 mph 1014.5mb 51f
12:30 8 10 mph 1014.5mb 51f
12:24 7 9 mph 1014.6mb 51f
12:18 7 9 mph 1014.5mb 51f
12:12 7 9 mph 1014.6mb 51f
12:06 7 10 mph 1014.6mb 51f
12:00 7 9 mph 1014.3mb 51f
lun 05/02 11:54 7 9 mph 1014.3mb 51f
11:48 5 7 mph 1014.6mb 51f
11:42 6 8 mph 1014.2mb 51f
11:36 6 8 mph 1014.3mb 52f
11:30 5 7 mph 1014.4mb 52f